createdAt,value
2022-07-30T00:04:47.683Z,55.00
2022-07-30T00:09:49.161Z,55.16
2022-07-30T00:14:50.746Z,55.95
2022-07-30T00:19:52.230Z,56.76
2022-07-30T00:24:55.197Z,57.22
2022-07-30T00:29:56.698Z,57.79
2022-07-30T00:34:58.320Z,58.31
2022-07-30T00:39:59.948Z,60.11
2022-07-30T00:45:01.478Z,62.71
2022-07-30T00:50:04.524Z,63.41
2022-07-30T00:55:07.928Z,63.74
2022-07-30T01:00:12.747Z,63.17
2022-07-30T01:05:14.691Z,63.19
2022-07-30T01:10:16.309Z,64.31
2022-07-30T01:15:18.788Z,65.72
2022-07-30T01:20:28.619Z,67.46
2022-07-30T01:25:52.912Z,68.33
2022-07-30T01:30:58.064Z,68.41
2022-07-30T01:36:00.681Z,67.19
2022-07-30T01:41:03.737Z,68.65
2022-07-30T01:46:06.784Z,69.30
2022-07-30T01:51:10.069Z,69.31
2022-07-30T01:56:16.893Z,69.50
2022-07-30T02:01:18.792Z,69.47
2022-07-30T02:06:23.240Z,69.29
2022-07-30T02:11:43.289Z,70.19
2022-07-30T02:16:49.354Z,69.94
2022-07-30T02:21:58.108Z,71.41
2022-07-30T02:27:04.418Z,71.52
2022-07-30T02:32:09.695Z,71.89
2022-07-30T02:37:14.424Z,72.21
2022-07-30T02:42:16.879Z,71.93
2022-07-30T02:47:25.632Z,72.38
2022-07-30T02:52:28.746Z,73.01
2022-07-30T02:57:32.952Z,73.22
2022-07-30T03:02:36.470Z,73.22
2022-07-30T03:07:42.081Z,73.82
2022-07-30T03:12:46.049Z,73.48
2022-07-30T03:17:52.216Z,74.25
2022-07-30T03:22:55.054Z,73.99
2022-07-30T03:27:57.887Z,74.85
2022-07-30T03:32:59.876Z,75.76
2022-07-30T03:38:02.467Z,75.83
2022-07-30T03:43:04.320Z,75.91
2022-07-30T03:48:20.224Z,76.57
2022-07-30T03:53:25.001Z,76.73
2022-07-30T03:58:26.559Z,76.33
2022-07-30T04:03:31.700Z,75.92
2022-07-30T04:08:33.295Z,75.53
2022-07-30T04:13:34.763Z,75.12
2022-07-30T04:18:45.060Z,74.92
2022-07-30T04:24:02.269Z,73.02
2022-07-30T04:29:09.404Z,70.90
2022-07-30T04:34:15.894Z,69.10
2022-07-30T04:39:17.435Z,65.70
2022-07-30T04:44:19.895Z,61.65
2022-07-30T04:49:22.860Z,60.18
2022-07-30T04:54:25.438Z,57.52
2022-07-30T04:59:28.499Z,55.65
2022-07-30T05:04:32.454Z,53.47
2022-07-30T05:09:34.532Z,50.62
2022-07-30T05:14:36.050Z,48.21
2022-07-30T05:19:37.557Z,45.79
2022-07-30T05:24:39.035Z,45.13
2022-07-30T05:29:40.491Z,43.13
2022-07-30T05:34:43.121Z,41.35
2022-07-30T05:40:02.702Z,39.32
2022-07-30T05:45:05.765Z,36.66
2022-07-30T05:50:07.535Z,34.64
2022-07-30T05:55:09.750Z,33.16
2022-07-30T06:00:12.080Z,32.36
2022-07-30T06:05:13.544Z,31.23
2022-07-30T06:10:15.039Z,30.72
2022-07-30T06:15:20.560Z,30.21
2022-07-30T06:20:27.495Z,29.57
2022-07-30T06:25:28.966Z,29.08
2022-07-30T06:30:31.269Z,28.18
2022-07-30T06:35:34.270Z,27.40
2022-07-30T06:40:35.781Z,27.19
2022-07-30T06:45:37.432Z,26.39
2022-07-30T06:50:39.308Z,27.16
2022-07-30T06:55:40.842Z,26.36
2022-07-30T07:00:44.791Z,29.68
2022-07-30T07:05:46.255Z,32.87
2022-07-30T07:10:47.755Z,34.84
2022-07-30T07:15:49.376Z,34.95
2022-07-30T07:20:50.867Z,30.94
2022-07-30T07:25:52.399Z,28.17
2022-07-30T07:30:53.917Z,26.68
2022-07-30T07:35:55.477Z,26.47
2022-07-30T07:40:56.946Z,24.74
2022-07-30T07:45:59.121Z,24.16
2022-07-30T07:51:01.028Z,22.66
2022-07-30T07:56:02.754Z,21.91
2022-07-30T08:01:05.862Z,22.24
2022-07-30T08:06:10.804Z,21.48
2022-07-30T08:11:14.778Z,22.20
2022-07-30T08:16:16.338Z,22.40
2022-07-30T08:21:17.980Z,21.64
2022-07-30T08:26:19.566Z,21.82
2022-07-30T08:31:21.023Z,23.47
2022-07-30T08:36:25.777Z,22.32
2022-07-30T08:41:28.329Z,22.59
2022-07-30T08:46:33.314Z,21.45
2022-07-30T08:51:35.736Z,20.66
2022-07-30T08:56:37.563Z,19.84
2022-07-30T09:01:39.133Z,19.42
2022-07-30T09:06:40.967Z,18.28
2022-07-30T09:11:44.356Z,18.61
2022-07-30T09:16:46.359Z,18.97
2022-07-30T09:21:58.965Z,18.79
2022-07-30T09:27:03.256Z,18.69
2022-07-30T09:32:09.597Z,18.38
2022-07-30T09:37:12.713Z,19.49
2022-07-30T09:42:23.524Z,19.94
2022-07-30T09:47:34.479Z,22.70
2022-07-30T09:52:43.912Z,22.95
2022-07-30T09:58:02.137Z,23.63
2022-07-30T10:03:21.793Z,23.48
2022-07-30T10:08:50.705Z,24.80
2022-07-30T10:13:57.894Z,25.76
2022-07-30T10:19:00.676Z,26.65
2022-07-30T10:24:02.334Z,27.62
2022-07-30T10:29:04.894Z,29.04
2022-07-30T10:34:07.683Z,28.55
2022-07-30T10:39:13.309Z,27.98
2022-07-30T10:44:28.207Z,27.90
2022-07-30T10:49:30.320Z,28.40
2022-07-30T10:54:47.340Z,28.12
2022-07-30T11:00:03.740Z,27.94
2022-07-30T11:05:18.120Z,28.33
2022-07-30T11:10:40.229Z,28.79
2022-07-30T11:16:11.657Z,29.70
2022-07-30T11:21:16.129Z,30.16
2022-07-30T11:26:40.902Z,30.26
2022-07-30T11:31:56.536Z,30.99
2022-07-30T11:37:21.815Z,31.30
2022-07-30T11:42:34.491Z,30.97
2022-07-30T11:47:36.083Z,30.65
2022-07-30T11:52:37.680Z,30.88
2022-07-30T11:57:40.519Z,30.06
2022-07-30T12:02:42.096Z,30.31
2022-07-30T12:07:43.652Z,30.07
2022-07-30T12:12:45.947Z,30.30
2022-07-30T12:17:47.416Z,31.16
2022-07-30T12:22:48.991Z,29.66
2022-07-30T12:27:52.393Z,30.06
2022-07-30T12:32:54.018Z,29.55
2022-07-30T12:38:03.371Z,30.50
2022-07-30T12:43:04.906Z,29.63
2022-07-30T12:48:15.197Z,30.75
2022-07-30T12:53:16.963Z,30.20
2022-07-30T12:58:18.420Z,29.95
2022-07-30T13:03:21.971Z,29.54
2022-07-30T13:08:49.406Z,29.78
2022-07-30T13:13:51.684Z,30.03
2022-07-30T13:18:53.310Z,29.59
2022-07-30T13:23:54.843Z,29.55
2022-07-30T13:29:01.376Z,29.13
2022-07-30T13:34:04.726Z,29.70
2022-07-30T13:39:06.348Z,29.16
2022-07-30T13:44:07.842Z,29.43
2022-07-30T13:49:10.770Z,30.39
2022-07-30T13:54:12.562Z,30.32
2022-07-30T13:59:15.457Z,29.52
2022-07-30T14:04:16.945Z,29.32
2022-07-30T14:09:18.428Z,29.12
2022-07-30T14:14:20.110Z,28.27
2022-07-30T14:19:23.174Z,27.78
2022-07-30T14:24:28.096Z,28.59
2022-07-30T14:29:29.579Z,28.00
2022-07-30T14:34:31.062Z,27.92
2022-07-30T14:39:33.324Z,28.08
2022-07-30T14:44:34.879Z,28.59
2022-07-30T14:49:36.485Z,27.83
2022-07-30T14:54:38.725Z,28.22
2022-07-30T14:59:40.150Z,27.77
2022-07-30T15:04:41.897Z,27.50
2022-07-30T15:09:43.398Z,27.44
2022-07-30T15:14:48.211Z,27.82
2022-07-30T15:19:51.189Z,28.15
2022-07-30T15:24:53.091Z,28.11
2022-07-30T15:29:54.689Z,27.75
2022-07-30T15:34:56.457Z,27.62
2022-07-30T15:39:57.994Z,28.21
2022-07-30T15:45:16.665Z,28.32
2022-07-30T15:50:19.430Z,27.88
2022-07-30T15:55:20.873Z,28.54
2022-07-30T16:00:23.010Z,29.03
2022-07-30T16:05:24.705Z,28.55
2022-07-30T16:10:26.227Z,28.27
2022-07-30T16:15:27.819Z,28.25
2022-07-30T16:20:29.327Z,28.61
2022-07-30T16:25:30.847Z,28.13
2022-07-30T16:30:32.336Z,28.96
2022-07-30T16:35:33.808Z,28.65
2022-07-30T16:40:51.005Z,29.28
2022-07-30T16:45:52.624Z,28.81
2022-07-30T16:50:54.851Z,29.44
2022-07-30T16:55:59.468Z,28.77
2022-07-30T17:01:00.990Z,29.22
2022-07-30T17:06:02.533Z,29.02
2022-07-30T17:11:09.783Z,29.42
2022-07-30T17:16:13.339Z,29.51
2022-07-30T17:21:15.056Z,29.26
2022-07-30T17:26:16.830Z,29.07
2022-07-30T17:31:18.288Z,29.30
2022-07-30T17:36:20.054Z,29.53
2022-07-30T17:41:21.521Z,29.36
2022-07-30T17:46:23.145Z,29.16
2022-07-30T17:51:24.802Z,29.79
2022-07-30T17:56:26.903Z,29.63
2022-07-30T18:01:29.023Z,30.02
2022-07-30T18:06:30.620Z,30.50
2022-07-30T18:11:32.596Z,30.38
2022-07-30T18:16:34.148Z,30.95
2022-07-30T18:21:35.844Z,30.94
2022-07-30T18:26:40.283Z,31.08
2022-07-30T18:31:41.775Z,30.98
2022-07-30T18:36:43.406Z,31.37
2022-07-30T18:41:44.877Z,31.85
2022-07-30T18:46:46.535Z,32.48
2022-07-30T18:51:48.241Z,32.74
2022-07-30T18:56:49.749Z,32.72
2022-07-30T19:01:51.270Z,33.02
2022-07-30T19:06:53.280Z,33.55
2022-07-30T19:11:54.740Z,33.73
2022-07-30T19:16:59.417Z,34.17
2022-07-30T19:22:01.991Z,34.46
2022-07-30T19:27:04.398Z,34.32
2022-07-30T19:32:06.583Z,35.29
2022-07-30T19:37:08.329Z,35.38
2022-07-30T19:42:09.825Z,36.01
2022-07-30T19:47:11.849Z,37.10
2022-07-30T19:52:23.621Z,37.06
2022-07-30T19:57:53.044Z,37.60
2022-07-30T20:02:49.270Z,38.12
2022-07-30T20:07:50.807Z,38.56
2022-07-30T20:12:56.031Z,38.59
2022-07-30T20:17:58.409Z,39.08
2022-07-30T20:22:59.987Z,39.42
2022-07-30T20:28:01.828Z,39.80
2022-07-30T20:33:04.381Z,40.37
2022-07-30T20:38:10.176Z,40.36
2022-07-30T20:43:11.914Z,41.04
2022-07-30T20:48:17.367Z,41.71
2022-07-30T20:58:48.997Z,41.58
2022-07-30T21:03:50.494Z,41.97
2022-07-30T21:08:51.961Z,41.92
2022-07-30T21:13:53.969Z,42.33
2022-07-30T21:18:56.629Z,42.22
2022-07-30T21:23:59.289Z,42.87
2022-07-30T21:29:01.639Z,43.45
2022-07-30T21:34:03.132Z,43.18
2022-07-30T21:39:05.203Z,43.67
2022-07-30T21:44:07.022Z,43.73
2022-07-30T21:49:08.685Z,43.70
2022-07-30T21:54:10.192Z,44.55
2022-07-30T21:59:12.167Z,44.41
2022-07-30T22:04:14.746Z,44.52
2022-07-30T22:09:34.353Z,45.13
2022-07-30T22:14:36.270Z,45.30
2022-07-30T22:19:37.847Z,45.76
2022-07-30T22:24:39.503Z,45.63
2022-07-30T22:29:41.727Z,46.61
2022-07-30T22:34:44.987Z,47.61
2022-07-30T22:39:51.745Z,47.65
2022-07-30T22:44:54.768Z,48.44
2022-07-30T22:49:57.017Z,48.46
2022-07-30T22:55:09.271Z,49.21
2022-07-30T23:00:14.269Z,49.13
2022-07-30T23:05:29.024Z,49.21
2022-07-30T23:10:31.054Z,49.08
2022-07-30T23:12:29.357Z,41.67
2022-07-30T23:15:33.755Z,50.18
2022-07-30T23:20:35.238Z,49.98
2022-07-30T23:25:38.968Z,49.70
2022-07-30T23:30:40.708Z,49.51
2022-07-30T23:35:43.625Z,49.46
2022-07-30T23:40:45.064Z,50.01
2022-07-30T23:45:46.531Z,50.22
2022-07-30T23:50:48.696Z,50.74
2022-07-30T23:55:50.752Z,50.93
